Weather at Damblain Air Base [CLOSED]

Public forecast

Using degrees Celsius for public forecast. Weather courtesy of forecast.io.

Closest aviation weather report (METAR) to Damblain Air Base

Closest report is Épinal-Mirecourt Airport, 21.7 nm (40.1 km) NE. Retrieved 2020/09/22 23:30 UTC (0 seconds ago):

LFSG 222330Z AUTO 23006KT CAVOK 18/12 Q1010

Closest aviation forecast (TAF) to Damblain Air Base

Closest forecast is Nancy-Ochey (BA 133) Air Base, 32.0 nm (59.3 km) NNE. Retrieved 2020/09/22 22:12 UTC (1 hour ago):

TAF LFSO 222204Z 2222/2321 CNL